createdAt,value
2017-04-17T00:00:55.494Z,9.90
2017-04-17T00:01:54.343Z,10.58
2017-04-17T00:02:53.660Z,10.72
2017-04-17T00:03:53.067Z,6.50
2017-04-17T00:04:51.704Z,9.93
2017-04-17T00:05:50.794Z,11.77
2017-04-17T00:06:49.157Z,8.63
2017-04-17T00:07:47.431Z,10.18
2017-04-17T00:08:45.699Z,14.82
2017-04-17T00:09:44.988Z,11.73
2017-04-17T00:10:43.333Z,11.73
2017-04-17T00:11:41.606Z,13.95
2017-04-17T00:12:39.894Z,9.72
2017-04-17T00:13:38.243Z,11.03
2017-04-17T00:14:36.672Z,11.60
2017-04-17T00:15:35.511Z,11.58
2017-04-17T00:16:34.937Z,6.72
2017-04-17T00:17:33.402Z,11.40
2017-04-17T00:18:31.677Z,13.17
2017-04-17T00:19:30.777Z,6.30
2017-04-17T00:20:29.259Z,8.53
2017-04-17T00:21:27.560Z,7.03
2017-04-17T00:22:26.500Z,8.53
2017-04-17T00:23:25.543Z,10.93
2017-04-17T00:24:23.806Z,8.47
2017-04-17T00:25:22.119Z,9.43
2017-04-17T00:26:22.116Z,13.60
2017-04-17T00:27:20.328Z,10.15
2017-04-17T00:28:19.352Z,8.03
2017-04-17T00:29:17.736Z,10.95
2017-04-17T00:30:16.719Z,12.02
2017-04-17T00:31:15.006Z,10.30
2017-04-17T00:32:14.094Z,8.83
2017-04-17T00:33:12.396Z,7.25
2017-04-17T00:34:10.689Z,8.82
2017-04-17T00:35:09.014Z,8.35
2017-04-17T00:36:08.833Z,6.37
2017-04-17T00:37:07.133Z,9.40
2017-04-17T00:38:06.281Z,8.40
2017-04-17T00:39:05.112Z,7.52
2017-04-17T00:40:04.137Z,8.77
2017-04-17T00:41:02.420Z,12.10
2017-04-17T00:42:00.668Z,10.53
2017-04-17T00:42:58.939Z,13.63
2017-04-17T00:43:57.191Z,8.88
2017-04-17T00:44:55.520Z,13.57
2017-04-17T00:45:53.851Z,8.15
2017-04-17T00:46:52.151Z,12.40
2017-04-17T00:47:50.420Z,9.55
2017-04-17T00:48:48.684Z,7.63
2017-04-17T00:49:47.103Z,8.93
2017-04-17T00:50:45.484Z,7.92
2017-04-17T00:51:44.036Z,9.38
2017-04-17T00:52:43.279Z,13.87
2017-04-17T00:53:41.657Z,7.52
2017-04-17T00:54:39.951Z,8.63
2017-04-17T00:55:39.201Z,7.17
2017-04-17T00:56:37.605Z,11.25
2017-04-17T00:57:35.903Z,9.00
2017-04-17T00:58:34.216Z,9.58
2017-04-17T00:59:32.565Z,8.50
2017-04-17T01:00:31.188Z,7.92
2017-04-17T01:01:29.492Z,12.38
2017-04-17T01:02:27.799Z,8.12
2017-04-17T01:03:26.444Z,6.10
2017-04-17T01:04:24.920Z,12.83
2017-04-17T01:05:23.146Z,8.95
2017-04-17T01:06:21.499Z,14.63
2017-04-17T01:07:19.914Z,7.90
2017-04-17T01:08:18.303Z,7.28
2017-04-17T01:09:17.297Z,6.53
2017-04-17T01:10:15.554Z,8.80
2017-04-17T01:11:14.503Z,7.85
2017-04-17T01:12:12.775Z,9.98
2017-04-17T01:13:11.313Z,8.77
2017-04-17T01:14:10.653Z,9.28
2017-04-17T01:15:08.945Z,10.67
2017-04-17T01:16:07.269Z,10.13
2017-04-17T01:17:05.636Z,11.68
2017-04-17T01:18:03.906Z,8.57
2017-04-17T01:19:03.151Z,5.15
2017-04-17T01:20:02.198Z,11.68
2017-04-17T01:21:00.457Z,4.80
2017-04-17T01:21:58.771Z,9.25
2017-04-17T01:22:57.686Z,6.83
2017-04-17T01:23:55.973Z,6.08
2017-04-17T01:24:54.919Z,10.70
2017-04-17T01:25:53.309Z,7.93
2017-04-17T01:26:51.629Z,6.95
2017-04-17T01:27:50.703Z,7.20
2017-04-17T01:28:49.045Z,8.57
2017-04-17T01:29:48.095Z,6.05
2017-04-17T01:30:46.414Z,16.57
2017-04-17T01:31:44.711Z,6.55
2017-04-17T01:32:43.693Z,7.18
2017-04-17T01:33:42.755Z,9.98
2017-04-17T01:34:41.016Z,7.73
2017-04-17T01:35:40.315Z,12.13
2017-04-17T01:36:38.620Z,6.82
2017-04-17T01:37:37.140Z,6.93
2017-04-17T01:38:36.188Z,13.88
2017-04-17T01:39:34.499Z,14.13
2017-04-17T01:40:32.809Z,9.83
2017-04-17T01:41:31.119Z,9.63
2017-04-17T01:42:29.403Z,11.18
2017-04-17T01:43:27.734Z,8.83
2017-04-17T01:44:26.049Z,8.37
2017-04-17T01:45:25.238Z,9.68
2017-04-17T01:46:24.348Z,11.27
2017-04-17T01:47:22.612Z,11.60
2017-04-17T01:48:20.865Z,7.05
2017-04-17T01:49:19.886Z,10.88
2017-04-17T01:50:18.154Z,6.45
2017-04-17T01:51:16.437Z,7.15
2017-04-17T01:52:14.715Z,10.00
2017-04-17T01:53:13.029Z,7.95
2017-04-17T01:54:11.288Z,7.07
2017-04-17T01:55:10.310Z,7.32
2017-04-17T01:56:08.567Z,10.92
2017-04-17T01:57:06.825Z,5.98
2017-04-17T01:58:05.103Z,9.90
2017-04-17T01:59:03.372Z,8.37
2017-04-17T02:00:01.591Z,11.02
2017-04-17T02:01:00.594Z,8.52
2017-04-17T02:01:58.983Z,8.45
2017-04-17T02:02:57.291Z,8.35
2017-04-17T02:03:55.616Z,6.58
2017-04-17T02:04:53.900Z,12.40
2017-04-17T02:05:52.164Z,6.55
2017-04-17T02:06:50.443Z,9.98
2017-04-17T02:07:48.730Z,10.20
2017-04-17T02:08:46.982Z,9.12
2017-04-17T02:09:45.987Z,10.48
2017-04-17T02:10:44.320Z,13.90
2017-04-17T02:11:42.977Z,9.40
2017-04-17T02:12:41.240Z,14.28
2017-04-17T02:13:39.498Z,11.02
2017-04-17T02:14:37.879Z,11.45
2017-04-17T02:15:36.347Z,14.37
2017-04-17T02:16:34.575Z,19.57
2017-04-17T02:17:32.927Z,19.50
2017-04-17T02:18:31.196Z,15.23
2017-04-17T02:19:29.954Z,15.82
2017-04-17T02:20:28.194Z,15.58
2017-04-17T02:21:26.483Z,12.25
2017-04-17T02:22:24.728Z,16.55
2017-04-17T02:23:23.120Z,17.77
2017-04-17T02:24:21.430Z,15.27
2017-04-17T02:25:21.459Z,16.52
2017-04-17T02:26:20.149Z,17.08
2017-04-17T02:27:18.450Z,19.52
2017-04-17T02:28:16.682Z,10.42
2017-04-17T02:29:15.035Z,11.07
2017-04-17T02:30:13.332Z,14.82
2017-04-17T02:31:11.602Z,12.53
2017-04-17T02:32:09.885Z,16.65
2017-04-17T02:33:08.170Z,10.85
2017-04-17T02:34:06.495Z,9.00
2017-04-17T02:35:04.784Z,10.98
2017-04-17T02:36:03.284Z,11.93
2017-04-17T02:37:01.580Z,11.95
2017-04-17T02:37:59.910Z,12.53
2017-04-17T02:38:58.165Z,10.57
2017-04-17T02:39:56.454Z,13.40
2017-04-17T02:40:55.510Z,9.53
2017-04-17T02:41:53.742Z,12.87
2017-04-17T02:42:52.681Z,9.30
2017-04-17T02:43:51.691Z,13.00
2017-04-17T02:44:49.973Z,12.80
2017-04-17T02:45:48.404Z,10.97
2017-04-17T02:46:46.765Z,7.48
2017-04-17T02:47:45.050Z,10.38
2017-04-17T02:48:44.074Z,10.82
2017-04-17T02:49:42.371Z,11.33
2017-04-17T02:50:40.723Z,8.60
2017-04-17T02:51:39.100Z,9.48
2017-04-17T02:52:37.560Z,8.10
2017-04-17T02:53:35.930Z,8.48
2017-04-17T02:54:34.199Z,9.80
2017-04-17T02:55:32.509Z,13.95
2017-04-17T02:56:30.949Z,10.02
2017-04-17T02:57:29.251Z,12.52
2017-04-17T02:58:27.562Z,13.52
2017-04-17T02:59:25.810Z,11.32
2017-04-17T03:00:24.084Z,13.98
2017-04-17T03:01:22.415Z,15.63
2017-04-17T03:02:21.409Z,8.30
2017-04-17T03:03:19.700Z,9.85
2017-04-17T03:04:18.004Z,10.65
2017-04-17T03:05:16.210Z,18.45
2017-04-17T03:06:14.483Z,13.62
2017-04-17T03:07:12.771Z,12.72
2017-04-17T03:08:11.027Z,7.28
2017-04-17T03:09:09.400Z,11.77
2017-04-17T03:10:07.673Z,15.07
2017-04-17T03:11:05.944Z,19.10
2017-04-17T03:12:04.267Z,8.70
2017-04-17T03:13:04.257Z,10.57
2017-04-17T03:14:02.573Z,8.88
2017-04-17T03:15:00.955Z,9.57
2017-04-17T03:17:23.770Z,11.55
2017-04-17T03:18:22.174Z,12.63
2017-04-17T03:19:20.427Z,11.32
2017-04-17T03:20:18.710Z,13.62
2017-04-17T03:21:16.963Z,13.22
2017-04-17T03:22:15.655Z,10.25
2017-04-17T03:23:13.950Z,16.63
2017-04-17T03:24:12.202Z,9.67
2017-04-17T03:25:11.039Z,10.88
2017-04-17T03:26:09.291Z,13.40
2017-04-17T03:27:07.999Z,11.02
2017-04-17T03:28:06.938Z,13.07
2017-04-17T03:29:05.956Z,16.03
2017-04-17T03:30:04.239Z,11.53
2017-04-17T03:31:02.560Z,13.77
2017-04-17T03:32:01.511Z,9.87
2017-04-17T03:33:00.513Z,14.67
2017-04-17T03:33:58.803Z,7.10
2017-04-17T03:34:57.116Z,8.88
2017-04-17T03:35:55.751Z,13.23
2017-04-17T03:36:55.022Z,14.65
2017-04-17T03:37:54.036Z,9.12
2017-04-17T03:38:52.284Z,14.37
2017-04-17T03:39:50.567Z,7.58
2017-04-17T03:40:48.840Z,12.77
2017-04-17T03:41:47.114Z,12.32
2017-04-17T03:42:45.428Z,9.25
2017-04-17T03:43:43.747Z,10.05
2017-04-17T03:44:43.020Z,11.72
2017-04-17T03:45:41.303Z,11.12
2017-04-17T03:46:40.136Z,10.90
2017-04-17T03:47:38.522Z,11.80
2017-04-17T03:48:36.809Z,16.17
2017-04-17T03:49:35.111Z,7.93
2017-04-17T03:50:33.393Z,14.27
2017-04-17T03:51:31.675Z,11.93
2017-04-17T03:52:30.686Z,14.50
2017-04-17T03:53:28.982Z,9.23
2017-04-17T03:54:27.248Z,12.77
2017-04-17T03:55:26.238Z,10.77
2017-04-17T03:56:25.241Z,18.93
2017-04-17T03:57:23.485Z,8.12
2017-04-17T03:58:22.767Z,13.93
2017-04-17T04:09:06.085Z,9.33
2017-04-17T04:10:05.298Z,11.07
2017-04-17T04:11:04.299Z,10.72
2017-04-17T04:12:03.477Z,13.03
2017-04-17T04:13:01.725Z,14.20
2017-04-17T04:13:59.975Z,12.57
2017-04-17T04:14:58.267Z,10.35
2017-04-17T04:15:57.291Z,12.38
2017-04-17T04:16:56.370Z,16.38
2017-04-17T04:17:55.411Z,9.18
2017-04-17T04:18:53.696Z,10.37
2017-04-17T04:19:52.033Z,10.43
2017-04-17T04:20:52.175Z,9.58
2017-04-17T04:21:51.599Z,14.10
2017-04-17T04:32:34.904Z,18.73
2017-04-17T04:33:33.170Z,15.82
2017-04-17T04:34:31.456Z,9.28
2017-04-17T04:35:29.836Z,13.08
2017-04-17T04:36:28.553Z,14.17
2017-04-17T04:37:26.803Z,16.52
2017-04-17T04:38:26.707Z,18.07
2017-04-17T04:39:25.024Z,19.05
2017-04-17T04:40:23.302Z,12.90
2017-04-17T04:41:22.101Z,15.80
2017-04-17T04:42:20.364Z,15.00
2017-04-17T04:43:19.381Z,13.22
2017-04-17T04:44:17.649Z,18.30
2017-04-17T04:45:15.945Z,18.63
2017-04-17T04:46:14.507Z,12.27
2017-04-17T04:47:12.734Z,15.97
2017-04-17T04:48:11.743Z,11.15
2017-04-17T04:49:10.602Z,18.58
2017-04-17T04:50:08.871Z,14.95
2017-04-17T04:51:08.870Z,17.27
2017-04-17T04:52:07.250Z,13.52
2017-04-17T04:53:05.572Z,15.63
2017-04-17T04:54:03.862Z,14.22
2017-04-17T04:55:02.661Z,12.20
2017-04-17T04:56:00.935Z,15.05
2017-04-17T04:57:00.165Z,15.65
2017-04-17T04:57:58.554Z,16.57
2017-04-17T04:58:56.847Z,15.95
2017-04-17T05:09:40.202Z,14.15
2017-04-17T05:10:41.765Z,11.30
2017-04-17T05:11:42.184Z,13.05
2017-04-17T05:12:41.187Z,18.58
2017-04-17T05:13:39.471Z,13.40
2017-04-17T05:14:38.988Z,16.12
2017-04-17T05:15:37.284Z,11.08
2017-04-17T05:16:35.567Z,16.08
2017-04-17T05:17:33.855Z,16.68
2017-04-17T05:18:32.149Z,15.57
2017-04-17T05:19:31.343Z,14.95
2017-04-17T05:20:29.705Z,20.27
2017-04-17T05:21:28.511Z,19.38
2017-04-17T05:22:27.411Z,14.03
2017-04-17T05:23:26.410Z,15.88
2017-04-17T05:24:25.511Z,18.38
2017-04-17T05:25:24.343Z,18.08
2017-04-17T05:26:22.951Z,15.77
2017-04-17T05:27:21.955Z,16.40
2017-04-17T05:28:20.220Z,15.32
2017-04-17T05:29:18.439Z,20.63
2017-04-17T05:30:16.705Z,17.88
2017-04-17T05:31:14.982Z,17.17
2017-04-17T05:32:14.103Z,15.90
2017-04-17T05:33:14.089Z,21.12
2017-04-17T05:34:12.756Z,16.25
2017-04-17T05:35:12.525Z,17.73
2017-04-17T05:36:11.618Z,18.27
2017-04-17T05:37:09.935Z,16.00
2017-04-17T05:38:08.202Z,18.45
2017-04-17T05:39:06.509Z,19.22
2017-04-17T05:40:04.773Z,18.38
2017-04-17T05:41:03.476Z,15.47
2017-04-17T05:42:03.007Z,18.33
2017-04-17T05:43:01.334Z,16.90
2017-04-17T05:44:00.267Z,13.68
2017-04-17T05:44:59.384Z,19.38
2017-04-17T05:45:57.915Z,16.07
2017-04-17T05:46:56.221Z,16.58
2017-04-17T05:47:54.501Z,17.40
2017-04-17T05:48:52.857Z,16.80
2017-04-17T05:49:52.142Z,23.40
2017-04-17T05:50:50.414Z,14.63
2017-04-17T05:51:49.714Z,15.57
2017-04-17T05:52:48.961Z,16.65
2017-04-17T05:53:47.883Z,17.03
2017-04-17T05:54:46.451Z,18.43
2017-04-17T05:55:44.871Z,16.72
2017-04-17T05:56:43.184Z,15.58
2017-04-17T05:57:42.135Z,15.15
2017-04-17T05:58:40.344Z,13.83
2017-04-17T05:59:38.659Z,14.90
2017-04-17T06:00:36.966Z,16.58
2017-04-17T06:01:35.231Z,13.85
2017-04-17T06:02:33.503Z,18.67
2017-04-17T06:03:32.447Z,19.75
2017-04-17T06:04:30.866Z,20.88
2017-04-17T06:05:29.897Z,13.78
2017-04-17T06:06:28.174Z,12.97
2017-04-17T06:07:26.470Z,15.12
2017-04-17T06:08:24.791Z,17.70
2017-04-17T06:09:23.974Z,16.07
2017-04-17T06:10:22.291Z,16.45
2017-04-17T06:11:21.430Z,16.65
2017-04-17T06:12:20.624Z,15.02
2017-04-17T06:13:19.447Z,18.25
2017-04-17T06:14:17.719Z,20.62
2017-04-17T06:15:16.741Z,22.67
2017-04-17T06:16:15.087Z,19.30
2017-04-17T06:17:13.576Z,13.97
2017-04-17T06:18:13.026Z,17.68
2017-04-17T06:19:11.942Z,16.65
2017-04-17T06:20:11.192Z,14.32
2017-04-17T06:21:10.835Z,19.27
2017-04-17T06:22:09.862Z,14.85
2017-04-17T06:23:08.151Z,16.48
2017-04-17T06:24:07.440Z,17.35
2017-04-17T06:25:05.708Z,14.90
2017-04-17T06:26:04.053Z,18.67
2017-04-17T06:27:03.045Z,18.22
2017-04-17T06:28:01.991Z,19.77
2017-04-17T06:29:00.463Z,20.93
2017-04-17T06:29:59.265Z,18.73
2017-04-17T06:30:58.156Z,17.67
2017-04-17T06:31:57.095Z,19.90
2017-04-17T06:32:56.086Z,17.83
2017-04-17T06:33:54.376Z,16.82
2017-04-17T06:34:52.677Z,25.17
2017-04-17T06:35:50.996Z,24.15
2017-04-17T06:36:49.264Z,23.03
2017-04-17T06:37:47.584Z,16.85
2017-04-17T06:38:45.915Z,19.97
2017-04-17T06:39:44.203Z,20.87
2017-04-17T06:40:42.520Z,21.88
2017-04-17T06:41:42.259Z,23.53
2017-04-17T06:42:40.529Z,19.22
2017-04-17T06:43:39.847Z,19.17
2017-04-17T06:44:38.984Z,18.75
2017-04-17T06:45:37.396Z,15.30
2017-04-17T06:46:36.781Z,24.87
2017-04-17T06:47:36.467Z,27.07
2017-04-17T06:48:35.712Z,21.67
2017-04-17T06:49:33.956Z,21.27
2017-04-17T06:50:32.241Z,21.43
2017-04-17T06:51:31.261Z,22.82
2017-04-17T06:52:29.630Z,19.17
2017-04-17T06:53:28.216Z,17.87
2017-04-17T06:54:26.505Z,22.17
2017-04-17T06:55:24.787Z,23.07
2017-04-17T06:56:23.064Z,26.88
2017-04-17T06:57:21.316Z,20.38
2017-04-17T06:58:19.610Z,18.57
2017-04-17T06:59:17.933Z,22.45
2017-04-17T07:00:16.746Z,17.42
2017-04-17T07:01:15.767Z,22.00
2017-04-17T07:02:14.099Z,23.10
2017-04-17T07:03:13.108Z,24.88
2017-04-17T07:04:11.352Z,19.25
2017-04-17T07:05:10.527Z,24.22
2017-04-17T07:06:08.789Z,20.20
2017-04-17T07:07:07.131Z,21.65
2017-04-17T07:08:06.803Z,21.12
2017-04-17T07:09:06.352Z,29.00
2017-04-17T07:10:04.672Z,23.20
2017-04-17T07:11:03.576Z,19.57
2017-04-17T07:12:03.073Z,19.58
2017-04-17T07:13:01.914Z,16.90
2017-04-17T07:14:00.217Z,20.88
2017-04-17T07:14:58.511Z,23.07
2017-04-17T07:15:57.648Z,21.22
2017-04-17T07:16:55.944Z,26.13
2017-04-17T07:17:55.635Z,24.93
2017-04-17T07:18:54.531Z,24.18
2017-04-17T07:19:52.960Z,22.78
2017-04-17T07:20:51.927Z,27.13
2017-04-17T07:21:50.226Z,26.85
2017-04-17T07:22:48.542Z,26.53
2017-04-17T07:23:47.602Z,22.22
2017-04-17T07:24:46.792Z,25.28
2017-04-17T07:25:45.457Z,25.18
2017-04-17T07:26:43.783Z,24.17
2017-04-17T07:27:42.100Z,26.05
2017-04-17T07:28:40.420Z,21.50
2017-04-17T07:29:39.152Z,22.20
2017-04-17T07:30:38.873Z,27.03
2017-04-17T07:31:37.144Z,24.55
2017-04-17T07:42:21.292Z,21.33
2017-04-17T07:43:19.831Z,20.07
2017-04-17T07:44:18.793Z,21.57
2017-04-17T07:45:17.415Z,19.63
2017-04-17T07:46:15.984Z,24.62
2017-04-17T07:47:14.260Z,25.85
2017-04-17T07:48:13.202Z,21.30
2017-04-17T07:49:11.452Z,23.53
2017-04-17T07:50:10.284Z,19.48
2017-04-17T07:51:09.150Z,19.27
2017-04-17T07:52:08.781Z,21.72
2017-04-17T07:53:08.072Z,17.70
2017-04-17T07:54:06.424Z,19.82
2017-04-17T07:55:04.741Z,20.10
2017-04-17T07:56:04.836Z,21.30
2017-04-17T07:57:03.101Z,22.90
2017-04-17T07:58:01.668Z,20.58
2017-04-17T07:58:59.960Z,23.23
2017-04-17T07:59:58.355Z,25.05
2017-04-17T08:00:56.643Z,20.58
2017-04-17T08:11:39.934Z,19.05
2017-04-17T08:12:39.267Z,22.32
2017-04-17T08:13:37.769Z,21.45
2017-04-17T08:14:36.075Z,20.95
2017-04-17T08:25:19.472Z,20.70
2017-04-17T08:26:21.291Z,21.25
2017-04-17T08:27:19.663Z,20.60
2017-04-17T08:28:18.557Z,19.25
2017-04-17T08:29:18.106Z,19.73
2017-04-17T08:30:18.225Z,22.70
2017-04-17T08:31:16.757Z,20.32
2017-04-17T08:32:14.973Z,20.88
2017-04-17T08:33:13.909Z,20.32
2017-04-17T08:34:12.188Z,21.85
2017-04-17T08:35:11.034Z,18.80
2017-04-17T08:36:09.321Z,18.23
2017-04-17T08:37:08.408Z,21.32
2017-04-17T08:38:07.531Z,25.55
2017-04-17T08:39:05.891Z,21.33
2017-04-17T08:40:04.233Z,23.95
2017-04-17T08:41:02.643Z,23.33
2017-04-17T08:42:01.607Z,22.72
2017-04-17T08:43:00.919Z,20.98
2017-04-17T08:43:59.350Z,18.00
2017-04-17T08:44:57.865Z,17.55
2017-04-17T08:45:56.177Z,19.72
2017-04-17T08:46:54.617Z,15.98
2017-04-17T08:47:53.175Z,18.23
2017-04-17T08:48:51.498Z,15.53
2017-04-17T08:49:49.809Z,18.77
2017-04-17T08:50:49.278Z,17.63
2017-04-17T08:52:23.039Z,23.37
2017-04-17T08:53:22.039Z,19.02
2017-04-17T08:54:21.008Z,18.13
2017-04-17T08:55:19.296Z,14.90
2017-04-17T08:56:17.611Z,21.57
2017-04-17T08:57:16.752Z,16.47
2017-04-17T08:58:15.065Z,17.57
2017-04-17T08:59:13.998Z,18.48
2017-04-17T09:00:14.159Z,15.78
2017-04-17T09:01:12.765Z,19.75
2017-04-17T09:02:11.185Z,16.52
2017-04-17T09:03:09.615Z,20.10
2017-04-17T09:04:08.008Z,15.13
2017-04-17T09:05:07.138Z,16.27
2017-04-17T09:06:05.423Z,19.38
2017-04-17T09:07:04.119Z,15.07
2017-04-17T09:08:03.084Z,14.67
2017-04-17T09:09:02.159Z,15.98
2017-04-17T09:10:01.402Z,11.25
2017-04-17T09:11:01.019Z,13.67
2017-04-17T09:11:59.852Z,14.42
2017-04-17T09:12:58.822Z,16.53
2017-04-17T09:13:57.146Z,13.82
2017-04-17T09:14:55.413Z,18.28
2017-04-17T09:15:53.755Z,14.47
2017-04-17T09:16:52.302Z,18.78
2017-04-17T09:17:50.636Z,13.12
2017-04-17T09:18:48.996Z,12.00
2017-04-17T09:19:49.323Z,9.67
2017-04-17T09:20:48.289Z,7.95
2017-04-17T09:21:46.752Z,8.32
2017-04-17T09:22:45.545Z,8.43
2017-04-17T09:23:46.622Z,7.08
2017-04-17T09:24:44.974Z,7.07
2017-04-17T09:25:43.353Z,8.20
2017-04-17T09:26:42.278Z,6.48
2017-04-17T09:27:40.686Z,4.12
2017-04-17T09:28:39.543Z,4.57
2017-04-17T09:29:39.600Z,4.07
2017-04-17T09:30:38.140Z,3.58
2017-04-17T09:31:37.194Z,2.85
2017-04-17T09:32:35.546Z,3.50
2017-04-17T09:33:35.381Z,1.85
2017-04-17T09:34:34.251Z,3.20
2017-04-17T09:35:32.664Z,3.20
2017-04-17T09:36:31.015Z,1.72
2017-04-17T09:37:29.515Z,2.23
2017-04-17T09:38:28.150Z,1.30
2017-04-17T09:39:26.505Z,2.02
2017-04-17T09:40:24.964Z,1.97
2017-04-17T09:41:23.265Z,3.40
2017-04-17T09:42:21.563Z,1.85
2017-04-17T09:43:20.786Z,1.80
2017-04-17T09:44:19.922Z,2.00
2017-04-17T09:45:19.139Z,2.07
2017-04-17T09:46:17.981Z,1.75
2017-04-17T09:47:16.542Z,1.72
2017-04-17T09:48:14.971Z,2.58
2017-04-17T09:49:13.313Z,3.08
2017-04-17T09:50:11.731Z,2.17
2017-04-17T09:51:10.075Z,2.72
2017-04-17T09:52:09.632Z,2.30
2017-04-17T09:53:08.293Z,2.70
2017-04-17T09:54:06.881Z,1.88
2017-04-17T09:55:05.165Z,1.65
2017-04-17T09:56:05.087Z,2.07
2017-04-17T09:57:03.387Z,2.05
2017-04-17T09:58:01.783Z,2.38
2017-04-17T09:59:00.119Z,2.07
2017-04-17T09:59:59.401Z,2.30
2017-04-17T10:00:58.439Z,2.42
2017-04-17T10:01:56.756Z,2.02
2017-04-17T10:02:55.203Z,2.48
2017-04-17T10:03:53.530Z,3.45
2017-04-17T10:04:51.916Z,3.92
2017-04-17T10:05:50.765Z,2.98
2017-04-17T10:06:49.749Z,1.93
2017-04-17T10:07:48.089Z,1.65
2017-04-17T10:08:47.898Z,2.18
2017-04-17T10:09:47.553Z,1.73
2017-04-17T10:10:45.910Z,2.65
2017-04-17T10:11:44.193Z,3.65
2017-04-17T10:12:43.641Z,1.88
2017-04-17T10:23:27.075Z,2.32
2017-04-17T10:24:26.037Z,1.72
2017-04-17T10:25:24.366Z,2.28
2017-04-17T10:26:23.749Z,2.07
2017-04-17T10:27:22.868Z,2.38
2017-04-17T10:28:22.506Z,1.75
2017-04-17T10:29:20.820Z,2.23
2017-04-17T10:30:19.105Z,1.75
2017-04-17T10:31:17.460Z,2.42
2017-04-17T10:32:15.752Z,2.28
2017-04-17T10:33:14.924Z,2.30
2017-04-17T10:34:13.223Z,2.45
2017-04-17T10:35:13.778Z,4.00
2017-04-17T10:36:12.100Z,3.50
2017-04-17T10:37:10.386Z,2.37
2017-04-17T10:38:08.687Z,2.18
2017-04-17T10:39:07.725Z,1.97
2017-04-17T10:40:06.091Z,2.32
2017-04-17T10:41:04.435Z,1.82
2017-04-17T10:42:02.872Z,2.08
2017-04-17T10:43:01.989Z,2.35
2017-04-17T10:44:00.254Z,2.45
2017-04-17T10:44:58.569Z,2.43
2017-04-17T10:45:58.202Z,2.40
2017-04-17T10:56:41.604Z,1.98
2017-04-17T10:57:40.550Z,1.80
2017-04-17T10:58:39.025Z,2.20
2017-04-17T10:59:37.396Z,2.47
2017-04-17T11:00:35.804Z,2.10
2017-04-17T11:01:35.707Z,2.87
2017-04-17T11:02:34.681Z,2.68
2017-04-17T11:03:33.482Z,2.95
2017-04-17T11:04:32.023Z,2.43
2017-04-17T11:05:31.582Z,2.92
2017-04-17T11:06:30.232Z,2.47
2017-04-17T11:07:29.178Z,2.48
2017-04-17T11:08:28.128Z,2.80
2017-04-17T11:09:26.904Z,2.93
2017-04-17T11:10:26.359Z,2.72
2017-04-17T11:11:24.630Z,2.77
2017-04-17T11:12:23.160Z,2.60
2017-04-17T11:13:23.590Z,1.87
2017-04-17T11:14:22.943Z,1.87
2017-04-17T11:15:21.541Z,1.95
2017-04-17T11:16:20.430Z,1.98
2017-04-17T11:17:20.601Z,2.15
2017-04-17T11:18:19.988Z,2.93
2017-04-17T11:19:18.936Z,1.67
2017-04-17T11:20:17.855Z,1.98
2017-04-17T11:21:16.151Z,1.93
2017-04-17T11:22:15.283Z,1.90
2017-04-17T11:23:14.216Z,2.02
2017-04-17T11:24:12.560Z,2.87
2017-04-17T11:25:10.859Z,2.37
2017-04-17T11:26:09.892Z,2.48
2017-04-17T11:27:08.934Z,2.98
2017-04-17T11:28:08.355Z,3.00
2017-04-17T11:29:06.988Z,2.98
2017-04-17T11:30:06.739Z,2.38
2017-04-17T11:31:05.070Z,2.38
2017-04-17T11:32:04.381Z,3.35
2017-04-17T11:33:02.739Z,2.95
2017-04-17T11:34:04.801Z,5.33
2017-04-17T11:35:03.715Z,2.85
2017-04-17T11:36:03.042Z,2.40
2017-04-17T11:37:02.507Z,2.82
2017-04-17T11:38:01.034Z,3.23
2017-04-17T11:38:59.370Z,2.42
2017-04-17T11:39:58.425Z,3.10
2017-04-17T11:40:56.837Z,3.02
2017-04-17T11:41:55.131Z,2.70
2017-04-17T11:42:53.730Z,2.32
2017-04-17T11:43:52.303Z,2.77
2017-04-17T11:44:50.594Z,2.33
2017-04-17T11:45:49.488Z,2.37
2017-04-17T11:46:47.818Z,2.15
2017-04-17T11:47:46.253Z,2.17
2017-04-17T11:48:50.017Z,2.00
2017-04-17T11:49:48.791Z,1.97
2017-04-17T11:50:48.546Z,1.65
2017-04-17T11:51:47.328Z,1.70
2017-04-17T11:52:46.619Z,2.17
2017-04-17T11:53:45.369Z,1.88
2017-04-17T11:54:44.677Z,2.87
2017-04-17T11:55:42.987Z,1.87
2017-04-17T11:56:42.098Z,1.70
2017-04-17T11:57:40.364Z,1.50
2017-04-17T11:58:39.245Z,1.70
2017-04-17T11:59:38.339Z,1.29
2017-04-17T12:00:38.159Z,1.51
2017-04-17T12:01:37.538Z,2.24
2017-04-17T12:02:38.895Z,1.66
2017-04-17T12:03:38.273Z,1.57
2017-04-17T12:04:37.261Z,1.47
2017-04-17T12:05:35.515Z,2.01
2017-04-17T12:06:35.370Z,1.27
2017-04-17T12:07:33.716Z,1.83
2017-04-17T12:08:32.031Z,1.61
2017-04-17T12:09:30.361Z,2.99
2017-04-17T12:10:28.675Z,1.73
2017-04-17T12:11:27.304Z,1.71
2017-04-17T12:12:26.335Z,1.83
2017-04-17T12:13:25.714Z,1.87
2017-04-17T12:14:24.422Z,2.34
2017-04-17T12:15:23.015Z,1.97
2017-04-17T12:16:22.169Z,1.93
2017-04-17T12:17:20.451Z,2.34
2017-04-17T12:18:20.853Z,2.17
2017-04-17T12:19:19.417Z,1.91
2017-04-17T12:20:19.366Z,2.14
2017-04-17T12:21:17.837Z,2.24
2017-04-17T12:22:16.132Z,1.59
2017-04-17T12:23:14.797Z,1.86
2017-04-17T12:24:13.218Z,1.70
2017-04-17T12:25:11.886Z,2.14
2017-04-17T12:26:10.310Z,1.66
2017-04-17T12:27:08.725Z,2.39
2017-04-17T12:28:07.029Z,2.26
2017-04-17T12:29:05.303Z,1.76
2017-04-17T12:30:03.655Z,2.04
2017-04-17T12:31:02.573Z,1.93
2017-04-17T12:32:00.855Z,3.86
2017-04-17T12:32:59.223Z,1.79
2017-04-17T12:33:59.279Z,2.01
2017-04-17T12:34:57.561Z,2.04
2017-04-17T12:35:55.896Z,1.97
2017-04-17T12:36:54.189Z,3.70
2017-04-17T12:37:52.508Z,2.07
2017-04-17T12:38:50.809Z,2.33
2017-04-17T12:39:49.849Z,2.37
2017-04-17T12:40:48.217Z,2.10
2017-04-17T12:41:46.503Z,2.80
2017-04-17T12:42:44.815Z,3.13
2017-04-17T12:43:43.188Z,2.01
2017-04-17T12:44:41.536Z,2.31
2017-04-17T12:45:40.564Z,3.07
2017-04-17T12:46:39.121Z,4.27
2017-04-17T12:47:38.351Z,2.93
2017-04-17T12:48:36.669Z,2.41
2017-04-17T12:49:37.544Z,3.10
2017-04-17T12:50:35.920Z,3.14
2017-04-17T12:51:34.224Z,2.87
2017-04-17T12:52:32.534Z,2.60
2017-04-17T12:53:30.811Z,3.27
2017-04-17T12:54:29.563Z,5.83
2017-04-17T12:55:28.568Z,2.47
2017-04-17T12:56:26.896Z,2.91
2017-04-17T12:57:25.232Z,2.20
2017-04-17T12:58:23.571Z,2.41
2017-04-17T13:09:08.870Z,2.93
2017-04-17T13:10:07.226Z,2.64
2017-04-17T13:11:05.528Z,3.37
2017-04-17T13:12:03.803Z,3.01
2017-04-17T13:13:02.897Z,2.27
2017-04-17T13:14:01.221Z,2.90
2017-04-17T13:15:00.722Z,3.59
2017-04-17T13:15:59.018Z,3.04
2017-04-17T13:16:58.166Z,2.87
2017-04-17T13:17:57.110Z,2.91
2017-04-17T13:18:55.715Z,3.49
2017-04-17T13:19:54.484Z,4.20
2017-04-17T13:20:52.887Z,4.94
2017-04-17T13:21:51.780Z,6.76
2017-04-17T13:22:50.431Z,5.00
2017-04-17T13:23:48.898Z,5.51
2017-04-17T13:24:47.452Z,4.37
2017-04-17T13:25:45.785Z,3.76
2017-04-17T13:26:44.099Z,6.06
2017-04-17T13:27:42.360Z,4.81
2017-04-17T13:28:41.376Z,4.19
2017-04-17T13:29:39.798Z,3.84
2017-04-17T13:30:38.246Z,3.96
2017-04-17T13:31:36.604Z,4.57
2017-04-17T13:32:34.977Z,3.95
2017-04-17T13:33:34.020Z,3.30
2017-04-17T13:34:32.741Z,3.37
2017-04-17T13:35:31.050Z,3.50
2017-04-17T13:36:29.527Z,3.57
2017-04-17T13:37:28.149Z,3.71
2017-04-17T13:38:29.590Z,10.43
2017-04-17T13:39:28.680Z,4.91
2017-04-17T13:40:27.201Z,7.81
2017-04-17T13:41:26.765Z,5.54
2017-04-17T13:42:25.281Z,3.76
2017-04-17T13:43:23.594Z,3.53
2017-04-17T13:44:21.900Z,4.17
2017-04-17T13:45:20.232Z,3.87
2017-04-17T13:46:19.101Z,3.33
2017-04-17T13:47:18.326Z,3.41
2017-04-17T13:48:17.362Z,3.70
2017-04-17T13:49:15.634Z,4.20
2017-04-17T13:50:14.778Z,3.77
2017-04-17T13:51:13.694Z,4.93
2017-04-17T13:52:12.054Z,3.97
2017-04-17T13:53:10.904Z,3.83
2017-04-17T13:54:10.264Z,3.83
2017-04-17T13:55:08.551Z,4.72
2017-04-17T13:56:06.916Z,3.88
2017-04-17T13:57:05.252Z,3.67
2017-04-17T13:58:03.799Z,4.05
2017-04-17T13:59:02.316Z,5.43
2017-04-17T14:09:45.776Z,3.70
2017-04-17T14:10:44.054Z,4.59
2017-04-17T14:11:42.338Z,3.79
2017-04-17T14:12:40.646Z,4.06
2017-04-17T14:13:38.916Z,4.19
2017-04-17T14:14:37.211Z,3.80
2017-04-17T14:15:35.557Z,3.63
2017-04-17T14:16:33.816Z,4.26
2017-04-17T14:17:32.885Z,4.46
2017-04-17T14:18:31.897Z,3.79
2017-04-17T14:19:30.200Z,5.06
2017-04-17T14:20:28.532Z,4.01
2017-04-17T14:21:27.413Z,5.04
2017-04-17T14:22:25.663Z,7.43
2017-04-17T14:23:23.967Z,5.07
2017-04-17T14:24:22.248Z,4.40
2017-04-17T14:25:20.559Z,4.70
2017-04-17T14:26:18.858Z,4.79
2017-04-17T14:27:17.233Z,7.19
2017-04-17T14:28:15.633Z,5.00